createdAt,value
2018-07-29T00:01:36.985Z,101047.41
2018-07-29T00:04:06.481Z,101043.28
2018-07-29T00:06:36.110Z,101057.25
2018-07-29T00:09:09.606Z,101060.66
2018-07-29T00:11:39.142Z,101065.81
2018-07-29T00:14:09.173Z,101071.30
2018-07-29T00:16:39.142Z,101076.04
2018-07-29T00:19:09.290Z,101072.75
2018-07-29T00:21:38.657Z,101080.48
2018-07-29T00:24:08.026Z,101079.30
2018-07-29T00:26:38.745Z,101081.09
2018-07-29T00:29:08.117Z,101090.05
2018-07-29T00:31:37.522Z,101084.27
2018-07-29T00:34:06.917Z,101084.45
2018-07-29T00:36:36.262Z,101086.12
2018-07-29T00:39:08.888Z,101087.23
2018-07-29T00:41:38.309Z,101086.08
2018-07-29T00:44:07.771Z,101088.77
2018-07-29T00:46:37.178Z,101085.72
2018-07-29T00:49:06.873Z,101090.38
2018-07-29T00:51:36.287Z,101089.17
2018-07-29T00:54:06.929Z,101085.39
2018-07-29T00:56:36.282Z,101087.50
2018-07-29T00:59:05.637Z,101090.91
2018-07-29T01:01:35.087Z,101093.12
2018-07-29T01:04:04.228Z,101101.47
2018-07-29T01:06:33.618Z,101094.34
2018-07-29T01:09:03.073Z,101099.33
2018-07-29T01:11:32.597Z,101101.95
2018-07-29T01:14:01.953Z,101093.80
2018-07-29T01:16:31.493Z,101092.17
2018-07-29T01:19:01.002Z,101085.48
2018-07-29T01:21:30.519Z,101086.48
2018-07-29T01:23:59.569Z,101080.53
2018-07-29T01:26:28.963Z,101082.27
2018-07-29T01:28:58.447Z,101081.34
2018-07-29T01:31:27.838Z,101084.47
2018-07-29T01:33:57.154Z,101088.84
2018-07-29T01:36:26.633Z,101087.55
2018-07-29T01:38:56.145Z,101089.64
2018-07-29T01:41:25.967Z,101096.28
2018-07-29T01:43:55.299Z,101098.84
2018-07-29T01:46:24.745Z,101096.75
2018-07-29T01:48:54.260Z,101096.32
2018-07-29T01:51:23.670Z,101098.80
2018-07-29T01:53:53.024Z,101105.66
2018-07-29T01:56:22.158Z,101103.19
2018-07-29T01:58:51.466Z,101103.31
2018-07-29T02:01:20.785Z,101111.58
2018-07-29T02:03:50.304Z,101101.04
2018-07-29T02:06:19.753Z,101108.23
2018-07-29T02:08:49.138Z,101103.98
2018-07-29T02:11:18.554Z,101096.92
2018-07-29T02:13:47.970Z,101099.48
2018-07-29T02:16:17.359Z,101103.27
2018-07-29T02:18:46.810Z,101101.20
2018-07-29T02:21:16.417Z,101102.34
2018-07-29T02:23:45.778Z,101106.08
2018-07-29T02:26:15.130Z,101106.12
2018-07-29T02:28:44.494Z,101109.10
2018-07-29T02:31:14.945Z,101107.00
2018-07-29T02:33:44.353Z,101108.27
2018-07-29T02:36:13.770Z,101107.42
2018-07-29T02:38:43.988Z,101109.19
2018-07-29T02:41:13.488Z,101113.85
2018-07-29T02:43:42.853Z,101113.85
2018-07-29T02:46:12.354Z,101117.27
2018-07-29T02:48:41.802Z,101124.02
2018-07-29T02:51:11.170Z,101123.59
2018-07-29T02:53:40.609Z,101117.34
2018-07-29T02:56:10.038Z,101118.64
2018-07-29T02:58:39.466Z,101120.78
2018-07-29T03:01:08.914Z,101120.52
2018-07-29T03:03:38.329Z,101123.91
2018-07-29T03:06:07.979Z,101127.30
2018-07-29T03:08:37.433Z,101131.92
2018-07-29T03:11:07.639Z,101128.19
2018-07-29T03:13:37.042Z,101137.00
2018-07-29T03:16:06.466Z,101145.13
2018-07-29T03:18:36.007Z,101152.39
2018-07-29T03:21:05.330Z,101150.68
2018-07-29T03:23:34.673Z,101149.13
2018-07-29T03:26:04.121Z,101151.27
2018-07-29T03:28:33.610Z,101148.32
2018-07-29T03:31:02.990Z,101150.52
2018-07-29T03:33:32.422Z,101154.73
2018-07-29T03:36:02.205Z,101155.97
2018-07-29T03:38:31.726Z,101162.34
2018-07-29T03:41:01.052Z,101162.43
2018-07-29T03:43:30.412Z,101160.81
2018-07-29T03:45:59.788Z,101162.14
2018-07-29T03:48:29.193Z,101163.09
2018-07-29T03:50:58.611Z,101165.47
2018-07-29T03:53:28.029Z,101169.67
2018-07-29T03:55:57.542Z,101169.25
2018-07-29T03:58:26.899Z,101172.63
2018-07-29T04:00:56.302Z,101176.03
2018-07-29T04:03:25.673Z,101177.38
2018-07-29T04:05:55.614Z,101184.86
2018-07-29T04:08:25.077Z,101183.95
2018-07-29T04:10:54.453Z,101188.86
2018-07-29T04:13:24.229Z,101187.55
2018-07-29T04:15:53.556Z,101187.94
2018-07-29T04:18:23.002Z,101181.30
2018-07-29T04:20:52.362Z,101181.72
2018-07-29T04:23:21.776Z,101182.09
2018-07-29T04:25:51.214Z,101176.64
2018-07-29T04:28:20.595Z,101179.46
2018-07-29T04:30:50.217Z,101182.82
2018-07-29T04:33:19.557Z,101183.57
2018-07-29T04:35:49.247Z,101184.77
2018-07-29T04:38:18.621Z,101191.42
2018-07-29T04:40:48.689Z,101192.59
2018-07-29T04:43:18.150Z,101195.85
2018-07-29T04:45:47.692Z,101197.50
2018-07-29T04:48:17.130Z,101202.02
2018-07-29T04:50:46.578Z,101201.91
2018-07-29T04:53:16.105Z,101201.35
2018-07-29T04:55:45.189Z,101197.08
2018-07-29T04:58:14.558Z,101194.52
2018-07-29T05:00:44.149Z,101194.02
2018-07-29T05:03:13.559Z,101193.19
2018-07-29T05:05:43.017Z,101196.50
2018-07-29T05:08:12.403Z,101199.37
2018-07-29T05:10:41.781Z,101199.29
2018-07-29T05:13:11.335Z,101198.41
2018-07-29T05:15:40.693Z,101199.20
2018-07-29T05:18:10.033Z,101202.53
2018-07-29T05:20:39.559Z,101204.13
2018-07-29T05:23:08.989Z,101207.82
2018-07-29T05:25:38.430Z,101213.30
2018-07-29T05:28:08.647Z,101214.46
2018-07-29T05:30:38.070Z,101219.47
2018-07-29T05:33:07.627Z,101223.67
2018-07-29T05:35:37.074Z,101217.38
2018-07-29T05:38:06.689Z,101217.36
2018-07-29T05:40:36.078Z,101219.74
2018-07-29T05:43:05.462Z,101217.52
2018-07-29T05:45:34.540Z,101226.67
2018-07-29T05:48:04.006Z,101224.52
2018-07-29T05:50:33.398Z,101227.42
2018-07-29T05:53:02.852Z,101232.38
2018-07-29T05:55:32.135Z,101234.10
2018-07-29T05:58:01.579Z,101236.92
2018-07-29T06:00:30.994Z,101239.76
2018-07-29T06:03:00.425Z,101241.77
2018-07-29T06:05:30.443Z,101242.52
2018-07-29T06:07:59.832Z,101245.88
2018-07-29T06:10:29.225Z,101244.05
2018-07-29T06:12:58.637Z,101243.16
2018-07-29T06:15:28.052Z,101244.27
2018-07-29T06:17:57.463Z,101245.94
2018-07-29T06:20:27.088Z,101244.91
2018-07-29T06:22:56.470Z,101252.84
2018-07-29T06:25:25.804Z,101254.11
2018-07-29T06:27:55.019Z,101259.95
2018-07-29T06:30:24.346Z,101259.94
2018-07-29T06:32:53.757Z,101259.41
2018-07-29T06:35:23.381Z,101268.57
2018-07-29T06:37:52.786Z,101271.50
2018-07-29T06:40:22.154Z,101271.24
2018-07-29T06:42:51.605Z,101268.59
2018-07-29T06:45:20.982Z,101270.23
2018-07-29T06:47:50.382Z,101272.69
2018-07-29T06:50:19.713Z,101266.25
2018-07-29T06:52:49.061Z,101270.42
2018-07-29T06:55:18.580Z,101269.98
2018-07-29T06:57:48.050Z,101274.45
2018-07-29T07:00:17.386Z,101272.94
2018-07-29T07:02:46.745Z,101266.50
2018-07-29T07:05:16.110Z,101270.52
2018-07-29T07:07:45.497Z,101277.97
2018-07-29T07:10:15.050Z,101281.50
2018-07-29T07:12:44.517Z,101276.44
2018-07-29T07:15:13.858Z,101286.31
2018-07-29T07:17:43.251Z,101283.98
2018-07-29T07:20:12.605Z,101282.72
2018-07-29T07:22:41.970Z,101286.40
2018-07-29T07:25:11.357Z,101291.02
2018-07-29T07:27:40.725Z,101296.73
2018-07-29T07:30:10.118Z,101293.20
2018-07-29T07:32:39.641Z,101293.94
2018-07-29T07:35:08.961Z,101293.64
2018-07-29T07:37:38.631Z,101302.84
2018-07-29T07:40:08.048Z,101296.64
2018-07-29T07:42:37.498Z,101302.05
2018-07-29T07:45:07.048Z,101296.40
2018-07-29T07:47:36.544Z,101301.09
2018-07-29T07:50:05.693Z,101309.25
2018-07-29T07:52:35.037Z,101306.00
2018-07-29T07:55:04.614Z,101308.86
2018-07-29T07:57:33.927Z,101308.10
2018-07-29T08:00:03.472Z,101310.20
2018-07-29T08:02:33.177Z,101309.88
2018-07-29T08:05:02.454Z,101310.03
2018-07-29T08:07:31.878Z,101308.73
2018-07-29T08:10:01.161Z,101303.16
2018-07-29T08:12:30.820Z,101303.20
2018-07-29T08:15:00.219Z,101304.09
2018-07-29T08:17:29.585Z,101301.89
2018-07-29T08:19:59.087Z,101301.70
2018-07-29T08:22:28.444Z,101299.09
2018-07-29T08:24:57.814Z,101299.02
2018-07-29T08:27:28.108Z,101300.12
2018-07-29T08:29:57.485Z,101301.77
2018-07-29T08:32:26.875Z,101298.19
2018-07-29T08:34:56.586Z,101293.04
2018-07-29T08:37:26.160Z,101295.92
2018-07-29T08:39:56.275Z,101289.94
2018-07-29T08:42:25.642Z,101290.45
2018-07-29T08:44:55.033Z,101283.66
2018-07-29T08:47:24.459Z,101291.48
2018-07-29T08:49:53.938Z,101280.75
2018-07-29T08:52:23.389Z,101277.58
2018-07-29T08:54:52.809Z,101276.53
2018-07-29T08:57:22.149Z,101275.65
2018-07-29T08:59:52.427Z,101268.20
2018-07-29T09:02:21.782Z,101269.23
2018-07-29T09:04:51.536Z,101268.53
2018-07-29T09:07:21.563Z,101270.17
2018-07-29T09:09:52.230Z,101268.10
2018-07-29T09:12:21.699Z,101269.58
2018-07-29T09:14:51.086Z,101269.58
2018-07-29T09:17:20.591Z,101275.13
2018-07-29T09:19:50.081Z,101267.34
2018-07-29T09:22:19.437Z,101269.05
2018-07-29T09:24:49.078Z,101273.66
2018-07-29T09:27:18.514Z,101273.95
2018-07-29T09:29:47.877Z,101267.59
2018-07-29T09:32:17.330Z,101269.31
2018-07-29T09:34:46.844Z,101272.80
2018-07-29T09:37:16.201Z,101263.88
2018-07-29T09:39:45.751Z,101260.70
2018-07-29T09:42:15.495Z,101263.34
2018-07-29T09:44:45.229Z,101265.66
2018-07-29T09:47:14.707Z,101260.03
2018-07-29T09:49:44.173Z,101266.92
2018-07-29T09:52:13.531Z,101264.02
2018-07-29T09:54:43.112Z,101254.91
2018-07-29T09:57:12.493Z,101252.56
2018-07-29T09:59:41.894Z,101261.83
2018-07-29T10:02:11.301Z,101254.77
2018-07-29T10:04:40.714Z,101253.98
2018-07-29T10:07:10.066Z,101253.40
2018-07-29T10:09:39.487Z,101238.75
2018-07-29T10:12:08.630Z,101249.75
2018-07-29T10:14:38.027Z,101248.34
2018-07-29T10:17:07.846Z,101245.67
2018-07-29T10:19:37.231Z,101245.09
2018-07-29T10:22:06.698Z,101250.19
2018-07-29T10:24:36.068Z,101238.59
2018-07-29T10:27:05.446Z,101237.56
2018-07-29T10:29:34.813Z,101236.48
2018-07-29T10:32:04.243Z,101228.91
2018-07-29T10:34:33.549Z,101227.28
2018-07-29T10:37:02.980Z,101227.20
2018-07-29T10:39:32.117Z,101236.25
2018-07-29T10:42:01.458Z,101237.66
2018-07-29T10:44:30.780Z,101236.17
2018-07-29T10:47:00.205Z,101228.00
2018-07-29T10:49:29.601Z,101229.31
2018-07-29T10:51:59.086Z,101230.93
2018-07-29T10:54:28.439Z,101231.68
2018-07-29T10:56:58.208Z,101229.05
2018-07-29T10:59:28.206Z,101219.49
2018-07-29T11:01:57.622Z,101220.59
2018-07-29T11:04:27.068Z,101212.42
2018-07-29T11:06:56.444Z,101214.84
2018-07-29T11:09:25.769Z,101206.77
2018-07-29T11:11:56.243Z,101199.91
2018-07-29T11:14:25.941Z,101200.70
2018-07-29T11:16:57.928Z,101197.66
2018-07-29T11:19:27.385Z,101191.82
2018-07-29T11:21:57.337Z,101195.67
2018-07-29T11:24:28.624Z,101195.74
2018-07-29T11:26:57.853Z,101191.47
2018-07-29T11:29:27.205Z,101189.30
2018-07-29T11:31:56.661Z,101178.19
2018-07-29T11:34:26.072Z,101180.92
2018-07-29T11:36:55.485Z,101178.05
2018-07-29T11:39:25.984Z,101185.79
2018-07-29T11:41:56.441Z,101185.16
2018-07-29T11:44:25.849Z,101187.94
2018-07-29T11:46:54.969Z,101184.84
2018-07-29T11:49:25.061Z,101183.30
2018-07-29T11:51:54.479Z,101178.37
2018-07-29T11:54:23.842Z,101170.25
2018-07-29T11:56:53.920Z,101167.72
2018-07-29T11:59:23.691Z,101171.78
2018-07-29T12:01:53.307Z,101167.13
2018-07-29T12:04:22.710Z,101165.36
2018-07-29T12:06:52.392Z,101163.19
2018-07-29T12:09:22.459Z,101168.80
2018-07-29T12:11:51.906Z,101156.00
2018-07-29T12:14:21.275Z,101142.95
2018-07-29T12:16:50.977Z,101143.89
2018-07-29T12:19:20.413Z,101150.08
2018-07-29T12:21:52.129Z,101153.90
2018-07-29T12:24:21.880Z,101143.55
2018-07-29T12:26:51.333Z,101141.08
2018-07-29T12:29:20.762Z,101135.90
2018-07-29T12:31:50.298Z,101139.50
2018-07-29T12:34:19.903Z,101141.63
2018-07-29T12:36:49.401Z,101138.78
2018-07-29T12:39:19.081Z,101128.50
2018-07-29T12:41:48.551Z,101126.41
2018-07-29T12:44:17.901Z,101124.21
2018-07-29T12:46:47.338Z,101117.06
2018-07-29T12:49:17.314Z,101121.30
2018-07-29T12:51:47.778Z,101117.94
2018-07-29T12:54:17.679Z,101113.01
2018-07-29T12:56:47.651Z,101102.16
2018-07-29T12:59:17.781Z,101090.27
2018-07-29T13:01:47.352Z,101104.20
2018-07-29T13:04:16.772Z,101096.89
2018-07-29T13:06:46.167Z,101087.52
2018-07-29T13:09:15.634Z,101087.20
2018-07-29T13:11:45.084Z,101076.48
2018-07-29T13:14:14.530Z,101071.73
2018-07-29T13:16:43.934Z,101061.52
2018-07-29T13:19:15.218Z,101065.59
2018-07-29T13:21:44.694Z,101071.11
2018-07-29T13:24:14.767Z,101064.48
2018-07-29T13:26:44.292Z,101063.34
2018-07-29T13:29:13.830Z,101060.44
2018-07-29T13:31:43.383Z,101052.58
2018-07-29T13:34:12.976Z,101031.89
2018-07-29T13:36:42.166Z,101044.03
2018-07-29T13:39:11.681Z,101040.47
2018-07-29T13:41:41.610Z,101034.37
2018-07-29T13:44:11.178Z,101036.49
2018-07-29T13:46:40.680Z,101032.70
2018-07-29T13:49:10.196Z,101034.50
2018-07-29T13:51:39.638Z,101038.80
2018-07-29T13:54:08.941Z,101028.98
2018-07-29T13:56:38.532Z,101021.33
2018-07-29T13:59:08.015Z,101023.75
2018-07-29T14:01:37.624Z,101023.36
2018-07-29T14:04:07.378Z,101023.74
2018-07-29T14:06:36.887Z,101011.83
2018-07-29T14:09:09.681Z,101007.71
2018-07-29T14:11:40.410Z,101001.93
2018-07-29T14:14:09.997Z,101008.25
2018-07-29T14:16:40.658Z,100995.24
2018-07-29T14:19:10.643Z,101004.73
2018-07-29T14:21:40.653Z,100996.31
2018-07-29T14:24:10.039Z,100990.16
2018-07-29T14:26:39.773Z,100986.37
2018-07-29T14:29:09.478Z,100993.48
2018-07-29T14:31:38.954Z,100990.47
2018-07-29T14:34:08.526Z,100989.32
2018-07-29T14:36:37.866Z,100976.59
2018-07-29T14:39:10.258Z,100985.48
2018-07-29T14:41:39.657Z,100996.06
2018-07-29T14:44:09.328Z,100977.43
2018-07-29T14:46:38.953Z,100978.41
2018-07-29T14:49:08.510Z,100969.41
2018-07-29T14:51:37.885Z,100978.83
2018-07-29T14:54:07.585Z,100969.25
2018-07-29T14:56:37.009Z,100966.16
2018-07-29T14:59:06.492Z,100968.86
2018-07-29T15:01:36.028Z,100957.38
2018-07-29T15:04:05.743Z,100959.49
2018-07-29T15:06:35.154Z,100944.63
2018-07-29T15:09:07.682Z,100938.85
2018-07-29T15:11:36.958Z,100934.01
2018-07-29T15:14:06.857Z,100940.05
2018-07-29T15:16:36.208Z,100937.98
2018-07-29T15:19:05.777Z,100936.62
2018-07-29T15:21:34.962Z,100933.27
2018-07-29T15:24:04.360Z,100933.88
2018-07-29T15:26:33.698Z,100936.96
2018-07-29T15:29:03.154Z,100931.78
2018-07-29T15:31:32.573Z,100930.34
2018-07-29T15:34:02.035Z,100922.72
2018-07-29T15:36:31.462Z,100921.87
2018-07-29T15:39:00.870Z,100921.42
2018-07-29T15:41:30.426Z,100921.64
2018-07-29T15:43:59.842Z,100914.17
2018-07-29T15:46:29.270Z,100913.88
2018-07-29T15:48:59.353Z,100912.57
2018-07-29T15:51:29.030Z,100910.27
2018-07-29T15:53:58.577Z,100918.44
2018-07-29T15:56:28.474Z,100920.61
2018-07-29T15:58:58.085Z,100918.58
2018-07-29T16:01:27.573Z,100910.12
2018-07-29T16:03:57.037Z,100908.41
2018-07-29T16:06:26.489Z,100905.16
2018-07-29T16:08:55.970Z,100899.95
2018-07-29T16:11:25.369Z,100904.66
2018-07-29T16:13:54.922Z,100898.52
2018-07-29T16:16:24.529Z,100900.27
2018-07-29T16:18:53.916Z,100896.91
2018-07-29T16:21:23.314Z,100902.88
2018-07-29T16:23:52.981Z,100897.34
2018-07-29T16:26:22.425Z,100897.69
2018-07-29T16:28:52.577Z,100899.20
2018-07-29T16:31:22.049Z,100903.42
2018-07-29T16:33:51.554Z,100889.14
2018-07-29T16:36:20.996Z,100890.99
2018-07-29T16:38:50.354Z,100902.94
2018-07-29T16:41:19.829Z,100901.00
2018-07-29T16:43:49.234Z,100898.13
2018-07-29T16:46:18.639Z,100894.52
2018-07-29T16:48:48.051Z,100901.58
2018-07-29T16:51:17.804Z,100909.69
2018-07-29T16:53:47.262Z,100908.47
2018-07-29T16:56:16.705Z,100906.66
2018-07-29T16:58:46.107Z,100916.45
2018-07-29T17:01:15.720Z,100908.98
2018-07-29T17:03:45.109Z,100910.78
2018-07-29T17:06:14.653Z,100913.59
2018-07-29T17:08:44.237Z,100910.06
2018-07-29T17:11:13.714Z,100903.66
2018-07-29T17:13:43.138Z,100903.53
2018-07-29T17:16:12.533Z,100903.08
2018-07-29T17:18:42.058Z,100908.19
2018-07-29T17:21:11.422Z,100906.97
2018-07-29T17:23:40.835Z,100913.18
2018-07-29T17:26:10.648Z,100912.38
2018-07-29T17:28:40.066Z,100919.40
2018-07-29T17:31:09.710Z,100915.91
2018-07-29T17:33:39.142Z,100916.73
2018-07-29T17:36:08.594Z,100918.95
2018-07-29T17:38:38.140Z,100917.41
2018-07-29T17:41:08.297Z,100918.08
2018-07-29T17:43:37.717Z,100919.39
2018-07-29T17:46:07.101Z,100917.63
2018-07-29T17:48:36.486Z,100919.13
2018-07-29T17:51:05.967Z,100928.94
2018-07-29T17:53:36.042Z,100931.26
2018-07-29T17:56:05.451Z,100928.61
2018-07-29T17:58:34.923Z,100933.92
2018-07-29T18:01:04.304Z,100933.34
2018-07-29T18:03:33.804Z,100929.86
2018-07-29T18:06:03.285Z,100931.42
2018-07-29T18:08:32.805Z,100927.23
2018-07-29T18:11:02.354Z,100929.16
2018-07-29T18:13:31.693Z,100930.06
2018-07-29T18:16:01.137Z,100930.20
2018-07-29T18:18:30.599Z,100932.34
2018-07-29T18:21:00.067Z,100937.07
2018-07-29T18:23:29.884Z,100933.52
2018-07-29T18:25:59.220Z,100936.44
2018-07-29T18:28:28.682Z,100937.35
2018-07-29T18:30:58.258Z,100940.37
2018-07-29T18:33:27.654Z,100940.45
2018-07-29T18:35:58.098Z,100937.16
2018-07-29T18:38:27.897Z,100944.38
2018-07-29T18:40:57.371Z,100943.66
2018-07-29T18:43:26.929Z,100948.59
2018-07-29T18:45:56.430Z,100945.08
2018-07-29T18:48:25.772Z,100939.84
2018-07-29T18:50:55.319Z,100943.05
2018-07-29T18:53:24.725Z,100945.13
2018-07-29T18:55:54.259Z,100938.42
2018-07-29T18:58:23.802Z,100939.05
2018-07-29T19:00:53.182Z,100944.16
2018-07-29T19:03:23.309Z,100945.09
2018-07-29T19:05:52.872Z,100941.61
2018-07-29T19:08:22.270Z,100947.94
2018-07-29T19:10:51.776Z,100947.38
2018-07-29T19:13:21.223Z,100951.36
2018-07-29T19:15:50.687Z,100957.08
2018-07-29T19:18:20.712Z,100961.42
2018-07-29T19:20:50.217Z,100960.45
2018-07-29T19:23:20.971Z,100969.94
2018-07-29T19:25:50.575Z,100973.94
2018-07-29T19:28:20.233Z,100975.33
2018-07-29T19:30:49.579Z,100976.60
2018-07-29T19:33:19.322Z,100976.84
2018-07-29T19:35:48.934Z,100977.73
2018-07-29T19:38:18.717Z,100987.12
2018-07-29T19:40:49.827Z,100990.34
2018-07-29T19:43:19.405Z,100995.63
2018-07-29T19:45:49.161Z,101002.02
2018-07-29T19:48:18.494Z,101016.48
2018-07-29T19:50:48.459Z,101025.59
2018-07-29T19:53:17.991Z,101035.78
2018-07-29T19:55:47.926Z,101034.02
2018-07-29T19:58:17.414Z,101036.72
2018-07-29T20:00:46.854Z,101031.40
2018-07-29T20:03:16.684Z,101023.60
2018-07-29T20:05:46.282Z,101025.50
2018-07-29T20:08:15.850Z,101028.16
2018-07-29T20:10:45.381Z,101026.22
2018-07-29T20:13:14.838Z,101023.83
2018-07-29T20:15:44.578Z,101024.55
2018-07-29T20:18:13.991Z,101026.11
2018-07-29T20:20:43.515Z,101028.73
2018-07-29T20:23:12.939Z,101029.99
2018-07-29T20:25:43.248Z,101030.48
2018-07-29T20:28:12.671Z,101035.08
2018-07-29T20:30:42.113Z,101031.66
2018-07-29T20:33:11.657Z,101036.70
2018-07-29T20:35:41.635Z,101030.81
2018-07-29T20:38:10.997Z,101038.64
2018-07-29T20:40:40.478Z,101044.87
2018-07-29T20:43:10.533Z,101052.23
2018-07-29T20:45:40.001Z,101050.38
2018-07-29T20:48:09.406Z,101049.49
2018-07-29T20:50:39.145Z,101055.62
2018-07-29T20:53:08.607Z,101050.22
2018-07-29T20:55:38.055Z,101058.47
2018-07-29T20:58:07.417Z,101063.45
2018-07-29T21:00:36.874Z,101067.58
2018-07-29T21:03:06.334Z,101067.19
2018-07-29T21:05:35.763Z,101070.28
2018-07-29T21:08:05.168Z,101074.05
2018-07-29T21:10:34.606Z,101073.58
2018-07-29T21:13:04.019Z,101082.76
2018-07-29T21:15:33.541Z,101085.84
2018-07-29T21:18:03.082Z,101088.30
2018-07-29T21:20:32.602Z,101088.45
2018-07-29T21:23:01.772Z,101093.70
2018-07-29T21:25:31.203Z,101099.48
2018-07-29T21:28:00.691Z,101099.03
2018-07-29T21:30:30.078Z,101099.34
2018-07-29T21:32:59.501Z,101099.39
2018-07-29T21:35:29.001Z,101097.87
2018-07-29T21:37:58.410Z,101101.98
2018-07-29T21:40:27.785Z,101100.09
2018-07-29T21:42:57.208Z,101107.19
2018-07-29T21:45:26.588Z,101097.01
2018-07-29T21:47:55.708Z,101112.80
2018-07-29T21:50:25.145Z,101110.47
2018-07-29T21:52:54.727Z,101112.46
2018-07-29T21:55:24.106Z,101105.13
2018-07-29T21:57:53.538Z,101100.70
2018-07-29T22:00:24.569Z,101107.02
2018-07-29T22:02:54.060Z,101112.66
2018-07-29T22:05:23.445Z,101115.27
2018-07-29T22:07:52.851Z,101114.31
2018-07-29T22:10:22.426Z,101112.94
2018-07-29T22:12:51.582Z,101117.84
2018-07-29T22:15:20.975Z,101126.55
2018-07-29T22:17:50.717Z,101125.88
2018-07-29T22:20:20.246Z,101124.91
2018-07-29T22:22:49.964Z,101129.30
2018-07-29T22:25:22.243Z,101121.90
2018-07-29T22:27:52.038Z,101121.78
2018-07-29T22:30:26.577Z,101124.33
2018-07-29T22:32:56.738Z,101118.24
2018-07-29T22:35:26.182Z,101121.39
2018-07-29T22:37:55.535Z,101120.71
2018-07-29T22:40:24.861Z,101118.67
2018-07-29T22:42:54.234Z,101118.08
2018-07-29T22:45:23.681Z,101114.15
2018-07-29T22:47:53.172Z,101109.42
2018-07-29T22:50:22.818Z,101106.12
2018-07-29T22:52:52.542Z,101110.73
2018-07-29T22:55:22.138Z,101106.83
2018-07-29T22:57:51.955Z,101102.41
2018-07-29T23:00:21.130Z,101098.70
2018-07-29T23:02:50.628Z,101105.11
2018-07-29T23:05:21.180Z,101104.63
2018-07-29T23:07:50.666Z,101095.80
2018-07-29T23:10:20.077Z,101097.30
2018-07-29T23:12:49.564Z,101104.78
2018-07-29T23:15:18.969Z,101100.59
2018-07-29T23:17:48.362Z,101096.95
2018-07-29T23:20:18.163Z,101100.09
2018-07-29T23:22:47.573Z,101094.47
2018-07-29T23:25:16.979Z,101096.39
2018-07-29T23:27:46.410Z,101092.33
2018-07-29T23:30:15.841Z,101096.50
2018-07-29T23:32:45.306Z,101092.86
2018-07-29T23:35:15.054Z,101087.41
2018-07-29T23:37:44.532Z,101085.51
2018-07-29T23:40:13.958Z,101083.81
2018-07-29T23:42:43.686Z,101074.50
2018-07-29T23:45:13.962Z,101072.36
2018-07-29T23:47:43.473Z,101074.93
2018-07-29T23:50:12.867Z,101072.86
2018-07-29T23:52:42.273Z,101073.99
2018-07-29T23:55:11.730Z,101072.49
2018-07-29T23:57:41.082Z,101068.78
